Gainesville Regional Airport Gainesville US
ICAO: KGNV
IATA: GNV
Category: Medium
Scheduled Services: Yes

Elevation: 152 ft
TransAlt. 18000 ft.

Airport Communications:
JACKSONVILLE APP/DEP:118.175
ATIS:127.15
CTAF:119.55
GND:121.7
RDO:122.1
RDO:122.2
TWR:119.55
UNICOM:122.95

KGNV Zoom In..

If you have problems with the map follow the link
https://www.worldairports.se/pages/airport.php?
ICAO=KGNV

Runways:

(A) RW 07 length 4158 ft width 100 ft
---- / hdg 65

(B) RW 11 length 7504 ft width 150 ft
---- / hdg 106

(C) RW 25 length 4158 ft width 100 ft
---- / hdg 245

(D) RW 29 length 7504 ft width 150 ft
ILS 111.30 / hdg 286

Location; KGNV
Day. 18 / Time. 07.53 Zulu
* Altimeter: 30.17
* Temperature: 24° c. 75.2°f.
* Wind from: 000° Speed 00 kn.
Dewpoint: 22° c.
Visibility: 10 Statute Miles.
Clouds: Broken 9500 ft.

KGNV 180753Z AUTO 00000KT 10SM BKN095 24/22 A3017 RMK AO2 SLP212 T02390222


Wind - Calm.

 
 
jpsmedia.com for Web Design worldairports.se 2018   terms of use